createdAt,value
2023-01-19T00:01:08.417Z,3.28
2023-01-19T00:03:37.718Z,3.38
2023-01-19T00:06:09.699Z,2.70
2023-01-19T00:08:39.152Z,2.75
2023-01-19T00:13:34.408Z,2.90
2023-01-19T00:16:00.908Z,2.80
2023-01-19T00:18:29.703Z,3.55
2023-01-19T00:20:58.666Z,3.10
2023-01-19T00:23:29.846Z,2.88
2023-01-19T00:25:59.376Z,2.80
2023-01-19T00:28:25.860Z,3.42
2023-01-19T00:30:54.696Z,3.72
2023-01-19T00:33:23.724Z,2.92
2023-01-19T00:35:55.397Z,3.10
2023-01-19T00:38:24.429Z,3.30
2023-01-19T00:40:50.950Z,2.40
2023-01-19T00:43:17.477Z,2.92
2023-01-19T00:45:47.991Z,3.28
2023-01-19T00:48:21.882Z,2.83
2023-01-19T00:50:49.051Z,3.20
2023-01-19T00:53:17.959Z,3.30
2023-01-19T00:55:46.553Z,3.13
2023-01-19T00:58:13.131Z,2.88
2023-01-19T01:00:41.896Z,3.13
2023-01-19T01:03:08.545Z,3.30
2023-01-19T01:05:42.468Z,2.97
2023-01-19T01:08:09.034Z,2.75
2023-01-19T01:10:40.186Z,3.38
2023-01-19T01:13:20.811Z,2.97
2023-01-19T01:15:55.071Z,3.13
2023-01-19T01:18:24.289Z,2.63
2023-01-19T01:23:23.785Z,2.95
2023-01-19T01:25:52.636Z,3.35
2023-01-19T01:28:21.535Z,3.22
2023-01-19T01:30:50.179Z,3.35
2023-01-19T01:33:40.624Z,3.67
2023-01-19T01:36:07.883Z,3.20
2023-01-19T01:38:37.009Z,3.60
2023-01-19T01:41:09.987Z,2.97
2023-01-19T01:43:42.649Z,3.05
2023-01-19T01:46:11.619Z,3.10
2023-01-19T01:48:39.440Z,4.28
2023-01-19T01:51:29.256Z,3.92
2023-01-19T01:54:10.789Z,4.32
2023-01-19T01:56:44.747Z,4.80
2023-01-19T01:59:34.745Z,5.13
2023-01-19T02:02:40.423Z,5.38
2023-01-19T02:05:12.916Z,5.15
2023-01-19T02:07:57.781Z,5.65
2023-01-19T02:10:42.978Z,4.53
2023-01-19T02:13:21.141Z,5.15
2023-01-19T02:15:52.817Z,4.82
2023-01-19T02:18:28.500Z,5.57
2023-01-19T02:21:12.759Z,5.28
2023-01-19T02:23:42.296Z,4.93
2023-01-19T02:26:09.692Z,5.68
2023-01-19T02:28:42.446Z,4.57
2023-01-19T02:31:11.497Z,5.18
2023-01-19T02:33:38.139Z,5.40
2023-01-19T02:36:05.270Z,5.35
2023-01-19T02:38:39.251Z,5.63
2023-01-19T02:41:08.951Z,5.63
2023-01-19T02:43:36.216Z,6.20
2023-01-19T02:46:03.338Z,4.93
2023-01-19T02:48:30.260Z,5.20
2023-01-19T02:53:29.901Z,4.95
2023-01-19T02:56:11.436Z,4.93
2023-01-19T02:58:48.401Z,4.97
2023-01-19T03:01:38.862Z,5.18
2023-01-19T03:04:26.878Z,4.90
2023-01-19T03:07:02.433Z,5.07
2023-01-19T03:09:33.729Z,4.97
2023-01-19T03:12:06.553Z,4.80
2023-01-19T03:14:37.004Z,4.53
2023-01-19T03:17:05.171Z,4.75
2023-01-19T03:19:38.156Z,5.03
2023-01-19T03:22:17.590Z,5.80
2023-01-19T03:24:45.500Z,5.13
2023-01-19T03:27:17.029Z,5.70
2023-01-19T03:29:50.818Z,4.97
2023-01-19T03:32:22.301Z,5.30
2023-01-19T03:34:53.923Z,5.70
2023-01-19T03:37:21.413Z,5.05
2023-01-19T03:39:47.947Z,5.50
2023-01-19T03:42:22.466Z,4.93
2023-01-19T03:44:57.697Z,4.93
2023-01-19T03:47:25.159Z,4.45
2023-01-19T03:49:56.787Z,5.45
2023-01-19T03:52:27.514Z,5.80
2023-01-19T03:54:56.597Z,5.80
2023-01-19T03:57:23.270Z,5.30
2023-01-19T03:59:49.789Z,6.05
2023-01-19T04:02:21.066Z,5.32
2023-01-19T04:04:47.832Z,6.57
2023-01-19T04:07:19.490Z,6.40
2023-01-19T04:09:48.975Z,6.75
2023-01-19T04:12:16.165Z,7.25
2023-01-19T04:14:42.646Z,5.68
2023-01-19T04:17:11.904Z,6.32
2023-01-19T04:19:40.764Z,6.07
2023-01-19T04:22:07.578Z,4.35
2023-01-19T04:24:34.000Z,5.00
2023-01-19T04:27:05.021Z,4.70
2023-01-19T04:29:31.534Z,4.45
2023-01-19T04:32:03.314Z,4.90
2023-01-19T04:34:32.379Z,4.10
2023-01-19T04:37:03.431Z,5.60
2023-01-19T04:39:34.148Z,5.75
2023-01-19T04:42:06.358Z,5.00
2023-01-19T04:44:35.387Z,4.95
2023-01-19T04:47:02.868Z,5.18
2023-01-19T04:49:31.984Z,4.95
2023-01-19T04:52:01.258Z,4.78
2023-01-19T04:54:27.697Z,4.80
2023-01-19T04:56:54.314Z,4.70
2023-01-19T04:59:23.209Z,5.20
2023-01-19T05:01:49.722Z,5.50
2023-01-19T05:04:16.352Z,13.63
2023-01-19T05:06:45.458Z,21.50
2023-01-19T05:09:15.326Z,8.98
2023-01-19T05:11:41.868Z,5.13
2023-01-19T05:14:10.957Z,4.82
2023-01-19T05:16:37.482Z,6.55
2023-01-19T05:19:06.233Z,8.63
2023-01-19T05:21:35.298Z,4.95
2023-01-19T05:24:01.856Z,5.20
2023-01-19T05:26:28.372Z,6.15
2023-01-19T05:28:54.961Z,4.78
2023-01-19T05:31:21.602Z,4.50
2023-01-19T05:33:50.618Z,4.60
2023-01-19T05:36:19.548Z,5.53
2023-01-19T05:38:50.771Z,4.15
2023-01-19T05:41:22.034Z,4.55
2023-01-19T05:43:48.614Z,3.72
2023-01-19T05:46:15.180Z,3.75
2023-01-19T05:48:41.692Z,4.82
2023-01-19T05:51:10.680Z,3.80
2023-01-19T05:53:39.667Z,5.03
2023-01-19T05:56:11.452Z,4.35
2023-01-19T05:58:41.319Z,3.90
2023-01-19T06:01:10.765Z,3.47
2023-01-19T06:03:42.802Z,3.95
2023-01-19T06:06:12.457Z,4.35
2023-01-19T06:11:10.581Z,4.32
2023-01-19T06:13:42.277Z,3.90
2023-01-19T06:16:11.892Z,4.68
2023-01-19T06:18:41.094Z,4.95
2023-01-19T06:21:12.287Z,4.25
2023-01-19T06:23:41.347Z,3.53
2023-01-19T06:26:07.829Z,4.55
2023-01-19T06:28:36.463Z,4.45
2023-01-19T06:31:05.462Z,4.97
2023-01-19T06:33:31.971Z,4.10
2023-01-19T06:36:00.861Z,5.15
2023-01-19T06:38:28.047Z,4.35
2023-01-19T06:40:55.716Z,4.75
2023-01-19T06:43:22.547Z,4.15
2023-01-19T06:45:52.236Z,4.53
2023-01-19T06:48:18.834Z,4.90
2023-01-19T06:50:50.155Z,9.02
2023-01-19T06:53:20.770Z,6.55
2023-01-19T06:55:47.258Z,6.78
2023-01-19T06:58:18.384Z,8.18
2023-01-19T07:00:50.447Z,5.57
2023-01-19T07:03:23.641Z,5.50
2023-01-19T07:05:56.838Z,5.10
2023-01-19T07:08:23.836Z,4.72
2023-01-19T07:11:26.057Z,4.95
2023-01-19T07:13:43.038Z,3.72
2023-01-19T07:16:10.982Z,7.28
2023-01-19T07:18:40.763Z,5.50
2023-01-19T07:21:07.674Z,4.90
2023-01-19T07:23:35.066Z,5.10
2023-01-19T07:26:06.810Z,5.13
2023-01-19T07:28:33.397Z,6.85
2023-01-19T07:31:00.132Z,5.95
2023-01-19T07:33:29.218Z,5.38
2023-01-19T07:35:55.716Z,4.45
2023-01-19T07:38:22.789Z,4.65
2023-01-19T07:40:51.769Z,8.80
2023-01-19T07:43:18.266Z,4.80
2023-01-19T07:45:49.364Z,5.03
2023-01-19T07:48:16.402Z,4.32
2023-01-19T07:50:47.760Z,4.55
2023-01-19T07:53:14.393Z,3.63
2023-01-19T07:55:40.985Z,5.28
2023-01-19T07:58:09.894Z,4.10
2023-01-19T08:00:39.612Z,3.92
2023-01-19T08:03:09.846Z,4.78
2023-01-19T08:05:36.378Z,7.30
2023-01-19T08:08:05.587Z,7.57
2023-01-19T08:10:33.065Z,4.30
2023-01-19T08:12:59.813Z,3.97
2023-01-19T08:15:26.867Z,4.40
2023-01-19T08:18:00.026Z,4.82
2023-01-19T08:20:29.920Z,4.15
2023-01-19T08:23:03.119Z,4.35
2023-01-19T08:25:33.846Z,3.42
2023-01-19T08:28:00.417Z,4.63
2023-01-19T08:30:27.141Z,5.57
2023-01-19T08:32:54.739Z,5.55
2023-01-19T08:35:22.594Z,3.88
2023-01-19T08:37:49.625Z,7.72
2023-01-19T08:40:21.337Z,6.32
2023-01-19T08:42:47.957Z,6.53
2023-01-19T08:45:14.602Z,6.30
2023-01-19T08:47:43.376Z,4.45
2023-01-19T08:50:12.732Z,4.28
2023-01-19T08:52:39.776Z,9.73
2023-01-19T08:55:09.234Z,6.68
2023-01-19T08:57:38.232Z,5.53
2023-01-19T09:00:07.897Z,4.20
2023-01-19T09:02:34.978Z,4.95
2023-01-19T09:05:06.443Z,6.13
2023-01-19T09:07:35.849Z,6.03
2023-01-19T09:10:03.327Z,4.72
2023-01-19T09:12:32.336Z,5.45
2023-01-19T09:15:04.003Z,5.28
2023-01-19T09:17:32.916Z,4.80
2023-01-19T09:19:59.523Z,5.63
2023-01-19T09:22:28.485Z,5.20
2023-01-19T09:24:54.943Z,5.13
2023-01-19T09:27:24.448Z,5.15
2023-01-19T09:29:54.037Z,4.38
2023-01-19T09:32:22.981Z,5.28
2023-01-19T09:34:49.592Z,4.00
2023-01-19T09:37:16.338Z,4.35
2023-01-19T09:39:45.345Z,4.25
2023-01-19T09:42:31.262Z,4.47
2023-01-19T09:44:57.838Z,4.60
2023-01-19T09:47:28.819Z,3.97
2023-01-19T09:50:03.808Z,3.85
2023-01-19T09:52:36.088Z,5.18
2023-01-19T09:55:05.051Z,5.38
2023-01-19T09:57:32.239Z,5.00
2023-01-19T09:59:59.769Z,5.07
2023-01-19T10:02:26.408Z,4.05
2023-01-19T10:05:03.126Z,4.18
2023-01-19T10:07:48.596Z,5.03
2023-01-19T10:10:15.134Z,4.30
2023-01-19T10:12:41.667Z,4.38
2023-01-19T10:15:31.536Z,5.03
2023-01-19T10:18:00.651Z,4.60
2023-01-19T10:20:33.328Z,4.82
2023-01-19T10:23:04.982Z,4.75
2023-01-19T10:25:32.082Z,3.13
2023-01-19T10:28:04.627Z,4.22
2023-01-19T10:30:36.073Z,3.80
2023-01-19T10:33:07.512Z,4.45
2023-01-19T10:35:39.494Z,4.10
2023-01-19T10:38:06.209Z,3.92
2023-01-19T10:40:54.033Z,3.17
2023-01-19T10:43:37.125Z,4.90
2023-01-19T10:46:08.106Z,3.88
2023-01-19T10:48:42.270Z,4.07
2023-01-19T10:51:09.295Z,3.90
2023-01-19T10:53:40.304Z,3.75
2023-01-19T10:56:19.427Z,4.63
2023-01-19T10:58:48.182Z,3.97
2023-01-19T11:01:24.577Z,3.70
2023-01-19T11:03:51.569Z,3.65
2023-01-19T11:06:25.186Z,3.70
2023-01-19T11:08:52.693Z,3.15
2023-01-19T11:11:23.382Z,3.20
2023-01-19T11:14:04.662Z,2.35
2023-01-19T11:16:32.157Z,2.95
2023-01-19T11:19:01.883Z,3.15
2023-01-19T11:21:29.143Z,3.15
2023-01-19T11:24:08.982Z,3.45
2023-01-19T11:26:44.025Z,3.75
2023-01-19T11:29:23.119Z,3.40
2023-01-19T11:31:52.868Z,3.47
2023-01-19T11:34:27.772Z,3.20
2023-01-19T11:37:04.439Z,3.05
2023-01-19T11:39:48.008Z,2.78
2023-01-19T11:42:14.955Z,3.10
2023-01-19T11:47:25.069Z,3.38
2023-01-19T11:50:14.485Z,3.10
2023-01-19T11:52:53.364Z,3.28
2023-01-19T11:55:23.634Z,2.75
2023-01-19T12:00:24.182Z,2.58
2023-01-19T12:02:55.305Z,2.67
2023-01-19T12:05:29.370Z,2.60
2023-01-19T12:08:01.019Z,2.78
2023-01-19T12:10:37.586Z,2.72
2023-01-19T12:13:04.259Z,3.00
2023-01-19T12:15:44.874Z,3.08
2023-01-19T12:18:25.844Z,2.50
2023-01-19T12:20:58.792Z,2.33
2023-01-19T12:23:34.687Z,2.83
2023-01-19T12:26:13.259Z,2.80
2023-01-19T12:28:44.160Z,2.38
2023-01-19T12:31:13.770Z,2.63
2023-01-19T12:33:42.560Z,2.80
2023-01-19T12:36:29.444Z,2.53
2023-01-19T12:38:55.980Z,2.40
2023-01-19T12:41:25.614Z,2.25
2023-01-19T12:44:19.689Z,1.63
2023-01-19T12:46:49.200Z,2.10
2023-01-19T12:49:20.495Z,2.00
2023-01-19T12:51:53.979Z,2.20
2023-01-19T12:54:33.083Z,1.83
2023-01-19T12:57:02.752Z,2.20
2023-01-19T12:59:31.191Z,1.77
2023-01-19T13:02:16.580Z,2.38
2023-01-19T13:05:27.580Z,2.00
2023-01-19T13:08:03.389Z,1.90
2023-01-19T13:10:50.670Z,2.05
2023-01-19T13:13:25.535Z,1.92
2023-01-19T13:15:55.476Z,2.50
2023-01-19T13:18:26.654Z,1.63
2023-01-19T13:20:57.882Z,1.92
2023-01-19T13:23:52.139Z,1.75
2023-01-19T13:28:48.955Z,1.27
2023-01-19T13:31:15.887Z,1.67
2023-01-19T13:33:58.677Z,1.52
2023-01-19T13:36:26.561Z,1.63
2023-01-19T13:38:53.586Z,1.27
2023-01-19T13:41:24.381Z,2.20
2023-01-19T13:43:55.072Z,1.90
2023-01-19T13:46:22.239Z,1.90
2023-01-19T13:48:55.866Z,2.10
2023-01-19T13:51:30.177Z,1.77
2023-01-19T13:53:59.668Z,2.20
2023-01-19T13:56:29.078Z,2.70
2023-01-19T13:59:07.042Z,1.80
2023-01-19T14:01:33.758Z,2.13
2023-01-19T14:04:02.798Z,2.40
2023-01-19T14:06:29.188Z,2.28
2023-01-19T14:09:28.304Z,2.25
2023-01-19T14:12:17.642Z,2.28
2023-01-19T14:14:48.191Z,1.92
2023-01-19T14:17:27.563Z,2.05
2023-01-19T14:19:55.445Z,2.17
2023-01-19T14:22:36.551Z,1.95
2023-01-19T14:25:24.003Z,2.00
2023-01-19T14:28:12.564Z,1.58
2023-01-19T14:30:54.748Z,2.05
2023-01-19T14:33:34.546Z,2.97
2023-01-19T14:36:21.065Z,2.63
2023-01-19T14:38:51.456Z,2.50
2023-01-19T14:41:26.149Z,2.10
2023-01-19T14:43:55.947Z,1.75
2023-01-19T14:46:24.834Z,2.25
2023-01-19T14:48:56.040Z,1.88
2023-01-19T14:51:26.488Z,1.88
2023-01-19T14:53:58.811Z,3.10
2023-01-19T14:56:29.045Z,5.53
2023-01-19T14:58:58.913Z,3.15
2023-01-19T15:01:31.168Z,3.05
2023-01-19T15:04:00.676Z,2.00
2023-01-19T15:06:29.532Z,2.90
2023-01-19T15:08:58.623Z,2.22
2023-01-19T15:11:34.476Z,1.77
2023-01-19T15:14:01.394Z,2.00
2023-01-19T15:18:54.764Z,1.60
2023-01-19T15:21:26.834Z,1.83
2023-01-19T15:23:58.964Z,1.70
2023-01-19T15:26:28.683Z,1.63
2023-01-19T15:28:57.287Z,1.70
2023-01-19T15:31:28.796Z,2.25
2023-01-19T15:33:58.293Z,1.63
2023-01-19T15:36:24.839Z,2.10
2023-01-19T15:38:53.838Z,2.08
2023-01-19T15:41:27.806Z,1.50
2023-01-19T15:43:56.722Z,2.60
2023-01-19T15:46:27.928Z,2.35
2023-01-19T15:48:57.717Z,2.50
2023-01-19T15:51:25.957Z,2.72
2023-01-19T15:53:55.099Z,2.45
2023-01-19T15:56:23.495Z,2.90
2023-01-19T15:58:52.846Z,2.42
2023-01-19T16:01:21.627Z,4.30
2023-01-19T16:03:50.736Z,4.05
2023-01-19T16:08:44.965Z,2.20
2023-01-19T16:11:18.518Z,2.65
2023-01-19T16:13:47.693Z,1.88
2023-01-19T16:16:15.571Z,1.98
2023-01-19T16:18:48.083Z,2.25
2023-01-19T16:21:17.561Z,2.22
2023-01-19T16:23:46.539Z,1.60
2023-01-19T16:26:44.337Z,2.25
2023-01-19T16:29:13.049Z,2.17
2023-01-19T16:31:45.563Z,1.65
2023-01-19T16:34:12.152Z,1.70
2023-01-19T16:36:41.651Z,2.83
2023-01-19T16:39:14.145Z,3.63
2023-01-19T16:41:44.247Z,2.83
2023-01-19T16:44:14.175Z,2.28
2023-01-19T16:46:41.740Z,3.05
2023-01-19T16:49:17.339Z,3.75
2023-01-19T16:51:43.900Z,23.00
2023-01-19T16:54:14.070Z,26.20
2023-01-19T16:56:43.173Z,36.90
2023-01-19T16:59:13.241Z,41.05
2023-01-19T17:01:44.819Z,43.65
2023-01-19T17:04:14.202Z,46.72
2023-01-19T17:06:40.917Z,19.80
2023-01-19T17:09:09.433Z,22.65
2023-01-19T17:11:36.154Z,30.42
2023-01-19T17:14:04.038Z,24.30
2023-01-19T17:16:33.465Z,4.90
2023-01-19T17:19:05.770Z,3.63
2023-01-19T17:21:37.703Z,2.63
2023-01-19T17:24:04.419Z,2.67
2023-01-19T17:26:35.599Z,3.28
2023-01-19T17:29:06.034Z,2.03
2023-01-19T17:31:33.044Z,2.10
2023-01-19T17:33:59.803Z,2.10
2023-01-19T17:36:27.654Z,2.10
2023-01-19T17:38:55.755Z,1.60
2023-01-19T17:41:23.720Z,2.17
2023-01-19T17:43:53.160Z,2.55
2023-01-19T17:46:20.893Z,2.75
2023-01-19T17:48:51.498Z,1.90
2023-01-19T17:51:22.655Z,2.45
2023-01-19T17:56:21.978Z,1.42
2023-01-19T17:58:50.960Z,2.63
2023-01-19T18:01:17.699Z,1.50
2023-01-19T18:03:46.734Z,1.80
2023-01-19T18:06:16.274Z,1.70
2023-01-19T18:08:47.656Z,1.42
2023-01-19T18:11:14.714Z,2.50
2023-01-19T18:13:46.483Z,1.50
2023-01-19T18:16:17.988Z,1.92
2023-01-19T18:18:46.786Z,1.45
2023-01-19T18:21:14.661Z,1.30
2023-01-19T18:23:45.128Z,1.42
2023-01-19T18:26:20.473Z,1.35
2023-01-19T18:28:47.433Z,1.05
2023-01-19T18:31:15.554Z,1.40
2023-01-19T18:33:42.413Z,1.67
2023-01-19T18:36:11.314Z,1.80
2023-01-19T18:38:41.134Z,1.55
2023-01-19T18:41:11.141Z,1.58
2023-01-19T18:43:40.162Z,1.42
2023-01-19T18:46:11.712Z,1.15
2023-01-19T18:48:42.882Z,1.63
2023-01-19T18:51:13.580Z,1.05
2023-01-19T18:53:45.570Z,1.35
2023-01-19T18:56:17.528Z,1.20
2023-01-19T18:58:46.328Z,1.45
2023-01-19T19:01:17.374Z,1.80
2023-01-19T19:03:43.953Z,1.17
2023-01-19T19:06:12.534Z,1.17
2023-01-19T19:08:43.239Z,1.33
2023-01-19T19:11:09.885Z,1.30
2023-01-19T19:13:43.661Z,1.42
2023-01-19T19:16:11.203Z,1.20
2023-01-19T19:18:44.831Z,1.10
2023-01-19T19:21:14.361Z,1.20
2023-01-19T19:23:40.943Z,1.30
2023-01-19T19:26:11.070Z,0.60
2023-01-19T19:28:40.553Z,1.20
2023-01-19T19:31:14.760Z,1.83
2023-01-19T19:33:43.931Z,0.93
2023-01-19T19:36:10.490Z,1.42
2023-01-19T19:38:41.203Z,1.05
2023-01-19T19:41:08.647Z,1.27
2023-01-19T19:43:38.125Z,1.13
2023-01-19T19:46:06.586Z,1.38
2023-01-19T19:48:34.079Z,1.13
2023-01-19T19:51:18.362Z,1.20
2023-01-19T19:53:51.187Z,1.35
2023-01-19T19:56:22.056Z,1.48
2023-01-19T19:58:49.255Z,1.27
2023-01-19T20:03:42.582Z,0.90
2023-01-19T20:06:10.388Z,1.05
2023-01-19T20:08:39.415Z,1.20
2023-01-19T20:11:07.323Z,0.93
2023-01-19T20:13:36.913Z,1.15
2023-01-19T20:16:07.317Z,1.48
2023-01-19T20:18:34.093Z,0.98
2023-01-19T20:21:02.697Z,1.10
2023-01-19T20:23:29.332Z,1.42
2023-01-19T20:26:00.810Z,1.15
2023-01-19T20:28:32.074Z,1.55
2023-01-19T20:31:10.376Z,1.13
2023-01-19T20:33:39.562Z,1.77
2023-01-19T20:36:06.394Z,1.20
2023-01-19T20:38:35.029Z,1.52
2023-01-19T20:41:04.009Z,1.63
2023-01-19T20:43:30.864Z,0.80
2023-01-19T20:45:57.619Z,1.23
2023-01-19T20:48:24.345Z,1.88
2023-01-19T20:50:53.232Z,1.23
2023-01-19T20:53:19.792Z,1.40
2023-01-19T20:55:46.361Z,1.20
2023-01-19T20:58:15.323Z,1.45
2023-01-19T21:00:42.200Z,1.23
2023-01-19T21:03:10.931Z,1.23
2023-01-19T21:05:39.579Z,0.90
2023-01-19T21:08:08.971Z,1.30
2023-01-19T21:10:40.112Z,1.30
2023-01-19T21:13:09.350Z,1.30
2023-01-19T21:15:40.880Z,1.00
2023-01-19T21:18:07.327Z,1.05
2023-01-19T21:20:33.804Z,1.67
2023-01-19T21:23:04.598Z,1.95
2023-01-19T21:25:33.785Z,1.17
2023-01-19T21:28:05.385Z,1.25
2023-01-19T21:30:31.898Z,1.05
2023-01-19T21:33:02.198Z,1.30
2023-01-19T21:35:28.994Z,1.25
2023-01-19T21:38:00.010Z,1.30
2023-01-19T21:40:26.597Z,1.05
2023-01-19T21:42:55.543Z,0.90
2023-01-19T21:45:24.537Z,0.70
2023-01-19T21:47:53.283Z,1.00
2023-01-19T21:50:19.775Z,0.98
2023-01-19T21:52:48.766Z,1.00
2023-01-19T21:55:17.696Z,0.95
2023-01-19T21:57:47.186Z,0.90
2023-01-19T22:00:13.835Z,0.60
2023-01-19T22:02:41.159Z,0.80
2023-01-19T22:05:09.017Z,1.08
2023-01-19T22:07:38.094Z,1.33
2023-01-19T22:10:09.268Z,1.38
2023-01-19T22:12:37.834Z,1.05
2023-01-19T22:15:07.883Z,1.33
2023-01-19T22:17:36.726Z,0.93
2023-01-19T22:20:05.580Z,1.17
2023-01-19T22:22:34.369Z,1.38
2023-01-19T22:25:04.395Z,1.10
2023-01-19T22:27:34.135Z,1.52
2023-01-19T22:30:03.037Z,0.90
2023-01-19T22:32:34.923Z,1.15
2023-01-19T22:35:01.434Z,1.20
2023-01-19T22:37:34.371Z,1.40
2023-01-19T22:40:04.386Z,1.35
2023-01-19T22:42:33.399Z,2.03
2023-01-19T22:45:02.336Z,1.02
2023-01-19T22:47:31.405Z,1.45
2023-01-19T22:50:00.629Z,1.08
2023-01-19T22:52:32.090Z,0.98
2023-01-19T22:54:58.640Z,1.38
2023-01-19T22:57:32.071Z,1.58
2023-01-19T22:59:58.644Z,1.80
2023-01-19T23:02:25.182Z,1.98
2023-01-19T23:04:51.669Z,1.42
2023-01-19T23:07:20.572Z,1.60
2023-01-19T23:09:49.207Z,1.25
2023-01-19T23:12:18.354Z,1.35
2023-01-19T23:14:47.332Z,1.35
2023-01-19T23:17:13.862Z,1.42
2023-01-19T23:19:42.734Z,1.15
2023-01-19T23:22:14.364Z,1.35
2023-01-19T23:24:43.192Z,1.40
2023-01-19T23:27:12.192Z,1.13
2023-01-19T23:29:41.186Z,1.23
2023-01-19T23:32:09.739Z,1.70
2023-01-19T23:34:36.312Z,1.73
2023-01-19T23:37:04.995Z,1.58
2023-01-19T23:39:36.522Z,1.33
2023-01-19T23:42:06.290Z,1.52
2023-01-19T23:44:32.762Z,1.20
2023-01-19T23:47:04.069Z,1.45
2023-01-19T23:49:32.782Z,1.60
2023-01-19T23:52:05.768Z,1.40
2023-01-19T23:54:34.471Z,1.10
2023-01-19T23:57:00.933Z,1.38
2023-01-19T23:59:29.967Z,1.95
